createdAt,value
2019-05-03T00:02:27.555Z,11.51
2019-05-03T00:05:05.243Z,11.28
2019-05-03T00:07:37.454Z,11.62
2019-05-03T00:10:07.745Z,11.81
2019-05-03T00:12:38.571Z,11.53
2019-05-03T00:15:23.072Z,11.40
2019-05-03T00:17:56.218Z,3.96
2019-05-03T00:20:29.965Z,11.49
2019-05-03T00:22:59.047Z,11.72
2019-05-03T00:25:29.800Z,11.84
2019-05-03T00:28:01.962Z,11.82
2019-05-03T00:30:35.812Z,11.90
2019-05-03T00:33:12.532Z,12.09
2019-05-03T00:36:06.457Z,11.75
2019-05-03T00:38:36.672Z,12.08
2019-05-03T00:41:08.853Z,12.10
2019-05-03T00:43:42.381Z,12.38
2019-05-03T00:46:13.561Z,12.49
2019-05-03T00:48:43.129Z,12.44
2019-05-03T00:51:12.328Z,12.58
2019-05-03T00:53:44.396Z,12.22
2019-05-03T00:56:16.464Z,12.28
2019-05-03T00:58:58.062Z,12.80
2019-05-03T01:01:29.108Z,12.29
2019-05-03T01:04:01.662Z,12.58
2019-05-03T01:06:31.996Z,12.67
2019-05-03T01:09:02.749Z,12.50
2019-05-03T01:11:32.465Z,12.51
2019-05-03T01:14:03.289Z,12.40
2019-05-03T01:16:32.737Z,12.23
2019-05-03T01:19:02.733Z,12.24
2019-05-03T01:21:36.641Z,12.09
2019-05-03T01:24:05.760Z,12.34
2019-05-03T01:26:36.472Z,12.51
2019-05-03T01:29:05.747Z,12.41
2019-05-03T01:31:36.563Z,12.55
2019-05-03T01:34:12.485Z,12.62
2019-05-03T01:36:42.711Z,12.10
2019-05-03T01:39:12.769Z,12.24
2019-05-03T01:41:42.011Z,12.47
2019-05-03T01:44:13.743Z,12.52
2019-05-03T01:46:43.415Z,12.16
2019-05-03T01:49:23.058Z,12.57
2019-05-03T01:52:14.635Z,12.52
2019-05-03T01:54:43.712Z,12.25
2019-05-03T01:57:13.494Z,12.89
2019-05-03T01:59:44.291Z,12.47
2019-05-03T02:02:41.851Z,12.86
2019-05-03T02:05:39.257Z,12.16
2019-05-03T02:08:14.532Z,12.30
2019-05-03T02:10:47.784Z,12.17
2019-05-03T02:13:16.925Z,12.29
2019-05-03T02:15:46.010Z,12.20
2019-05-03T02:18:17.823Z,12.82
2019-05-03T02:20:52.407Z,13.21
2019-05-03T02:23:22.459Z,13.01
2019-05-03T02:25:56.742Z,13.19
2019-05-03T02:28:25.120Z,12.68
2019-05-03T02:30:54.182Z,12.34
2019-05-03T02:33:23.540Z,13.20
2019-05-03T02:35:53.439Z,12.42
2019-05-03T02:38:23.346Z,12.93
2019-05-03T02:40:55.400Z,12.94
2019-05-03T02:43:32.482Z,12.97
2019-05-03T02:46:21.514Z,12.77
2019-05-03T02:49:15.410Z,12.50
2019-05-03T02:51:46.048Z,12.45
2019-05-03T02:54:17.235Z,11.91
2019-05-03T02:56:48.883Z,12.16
2019-05-03T02:59:19.230Z,12.40
2019-05-03T03:01:48.387Z,12.88
2019-05-03T03:04:18.357Z,12.02
2019-05-03T03:06:48.321Z,12.17
2019-05-03T03:09:20.668Z,12.61
2019-05-03T03:11:51.382Z,12.97
2019-05-03T03:14:21.994Z,12.86
2019-05-03T03:16:55.992Z,12.84
2019-05-03T03:19:28.753Z,12.30
2019-05-03T03:22:01.853Z,11.54
2019-05-03T03:24:32.591Z,11.94
2019-05-03T03:27:08.466Z,12.40
2019-05-03T03:29:38.086Z,11.70
2019-05-03T03:32:22.557Z,12.06
2019-05-03T03:35:11.726Z,12.02
2019-05-03T03:37:41.836Z,11.55
2019-05-03T03:40:12.843Z,12.20
2019-05-03T03:42:44.824Z,12.16
2019-05-03T03:45:16.598Z,11.95
2019-05-03T03:47:47.851Z,12.51
2019-05-03T03:50:17.087Z,12.47
2019-05-03T03:52:52.721Z,12.39
2019-05-03T03:55:26.440Z,11.82
2019-05-03T03:57:57.008Z,10.18
2019-05-03T04:00:31.306Z,12.20
2019-05-03T04:03:05.618Z,11.94
2019-05-03T04:05:35.915Z,12.11
2019-05-03T04:08:09.586Z,11.94
2019-05-03T04:10:39.372Z,11.64
2019-05-03T04:13:16.009Z,11.74
2019-05-03T04:16:05.524Z,11.35
2019-05-03T04:18:40.105Z,11.60
2019-05-03T04:21:10.189Z,11.72
2019-05-03T04:23:41.720Z,12.40
2019-05-03T04:26:10.976Z,11.52
2019-05-03T04:28:41.025Z,11.53
2019-05-03T04:31:10.515Z,11.12
2019-05-03T04:33:39.918Z,9.69
2019-05-03T04:36:09.393Z,11.91
2019-05-03T04:38:38.499Z,11.58
2019-05-03T04:41:07.993Z,11.71
2019-05-03T04:43:39.777Z,11.70
2019-05-03T04:46:16.976Z,11.47
2019-05-03T04:48:46.036Z,11.95
2019-05-03T04:51:25.849Z,12.39
2019-05-03T04:54:16.124Z,12.53
2019-05-03T04:56:46.591Z,12.00
2019-05-03T04:59:16.295Z,11.83
2019-05-03T05:01:47.435Z,11.82
2019-05-03T05:04:17.287Z,12.13
2019-05-03T05:06:49.255Z,12.45
2019-05-03T05:09:19.380Z,12.82
2019-05-03T05:11:49.579Z,13.08
2019-05-03T05:14:20.463Z,13.19
2019-05-03T05:16:50.275Z,12.84
2019-05-03T05:19:25.412Z,12.69
2019-05-03T05:21:59.935Z,12.23
2019-05-03T05:24:29.232Z,12.28
2019-05-03T05:27:26.055Z,12.34
2019-05-03T05:29:58.632Z,11.96
2019-05-03T05:32:28.153Z,11.97
2019-05-03T05:34:59.237Z,11.72
2019-05-03T05:37:30.877Z,11.23
2019-05-03T05:40:02.344Z,11.04
2019-05-03T05:42:31.864Z,11.33
2019-05-03T05:45:01.191Z,11.39
2019-05-03T05:47:44.969Z,11.32
2019-05-03T05:50:40.898Z,11.90
2019-05-03T05:53:19.223Z,11.88
2019-05-03T05:56:13.499Z,11.87
2019-05-03T05:59:10.600Z,11.77
2019-05-03T06:01:59.486Z,11.61
2019-05-03T06:04:28.855Z,11.42
2019-05-03T06:07:24.844Z,11.48
2019-05-03T06:10:19.871Z,11.26
2019-05-03T06:13:04.867Z,10.68
2019-05-03T06:15:57.805Z,11.24
2019-05-03T06:18:32.780Z,11.27
2019-05-03T06:21:21.287Z,10.66
2019-05-03T06:23:57.786Z,11.16
2019-05-03T06:26:44.392Z,11.28
2019-05-03T06:29:15.002Z,11.12
2019-05-03T06:31:57.728Z,11.20
2019-05-03T06:34:27.697Z,10.71
2019-05-03T06:36:58.805Z,10.46
2019-05-03T06:39:35.216Z,10.90
2019-05-03T06:42:05.209Z,11.29
2019-05-03T06:44:34.973Z,11.42
2019-05-03T06:47:06.673Z,10.71
2019-05-03T06:49:39.257Z,10.93
2019-05-03T06:52:11.769Z,11.48
2019-05-03T06:54:41.058Z,11.03
2019-05-03T06:57:12.103Z,11.63
2019-05-03T07:00:07.363Z,10.93
2019-05-03T07:02:58.856Z,11.21
2019-05-03T07:05:47.075Z,11.10
2019-05-03T07:08:34.439Z,11.23
2019-05-03T07:11:05.216Z,11.42
2019-05-03T07:13:37.629Z,11.77
2019-05-03T07:16:10.271Z,11.66
2019-05-03T07:18:39.852Z,11.39
2019-05-03T07:21:11.647Z,3.34
2019-05-03T07:23:41.964Z,11.34
2019-05-03T07:26:11.060Z,11.70
2019-05-03T07:28:47.741Z,11.30
2019-05-03T07:31:15.061Z,11.77
2019-05-03T07:33:44.693Z,11.50
2019-05-03T07:36:15.422Z,11.75
2019-05-03T07:38:45.442Z,12.13
2019-05-03T07:41:17.111Z,12.02
2019-05-03T07:43:46.514Z,12.09
2019-05-03T07:46:18.135Z,11.43
2019-05-03T07:48:47.306Z,11.80
2019-05-03T07:51:16.378Z,12.01
2019-05-03T07:53:48.422Z,11.63
2019-05-03T07:56:18.332Z,11.10
2019-05-03T07:59:02.644Z,12.00
2019-05-03T08:01:32.513Z,12.76
2019-05-03T08:04:02.461Z,12.16
2019-05-03T08:06:31.575Z,11.87
2019-05-03T08:09:01.123Z,11.50
2019-05-03T08:11:35.053Z,11.43
2019-05-03T08:14:05.000Z,11.63
2019-05-03T08:16:35.692Z,11.79
2019-05-03T08:19:06.567Z,12.85
2019-05-03T08:21:37.860Z,12.58
2019-05-03T08:24:09.075Z,13.15
2019-05-03T08:26:38.211Z,13.49
2019-05-03T08:29:15.954Z,12.99
2019-05-03T08:32:00.175Z,13.67
2019-05-03T08:34:34.953Z,13.96
2019-05-03T08:37:06.028Z,13.57
2019-05-03T08:39:35.818Z,13.15
2019-05-03T08:42:11.874Z,13.13
2019-05-03T08:44:45.306Z,14.13
2019-05-03T08:47:15.533Z,14.08
2019-05-03T08:49:45.123Z,14.18
2019-05-03T08:52:16.135Z,13.96
2019-05-03T08:54:47.406Z,13.51
2019-05-03T08:57:18.363Z,13.33
2019-05-03T08:59:49.955Z,13.51
2019-05-03T09:02:19.276Z,13.15
2019-05-03T09:04:49.421Z,12.88
2019-05-03T09:07:18.550Z,13.15
2019-05-03T09:10:05.421Z,13.10
2019-05-03T09:12:52.967Z,13.86
2019-05-03T09:15:22.135Z,14.51
2019-05-03T09:17:52.132Z,13.95
2019-05-03T09:20:32.350Z,14.30
2019-05-03T09:23:06.606Z,13.70
2019-05-03T09:25:37.357Z,13.18
2019-05-03T09:28:10.370Z,13.33
2019-05-03T09:30:44.505Z,13.10
2019-05-03T09:33:17.153Z,13.83
2019-05-03T09:35:47.731Z,13.85
2019-05-03T09:38:18.965Z,14.15
2019-05-03T09:40:51.951Z,14.10
2019-05-03T09:43:25.095Z,13.94
2019-05-03T09:45:54.771Z,13.65
2019-05-03T09:48:25.440Z,13.85
2019-05-03T09:50:55.909Z,6.62
2019-05-03T09:53:27.581Z,14.14
2019-05-03T09:55:57.732Z,13.90
2019-05-03T09:58:28.397Z,14.22
2019-05-03T10:00:57.519Z,14.20
2019-05-03T10:03:26.731Z,14.37
2019-05-03T10:05:55.818Z,14.34
2019-05-03T10:08:28.577Z,14.45
2019-05-03T10:11:15.865Z,14.74
2019-05-03T10:13:56.319Z,15.38
2019-05-03T10:16:25.596Z,14.92
2019-05-03T10:18:55.352Z,14.97
2019-05-03T10:21:27.981Z,14.74
2019-05-03T10:23:57.072Z,14.53
2019-05-03T10:26:26.881Z,14.45
2019-05-03T10:28:57.681Z,14.70
2019-05-03T10:31:32.441Z,14.01
2019-05-03T10:34:02.749Z,14.73
2019-05-03T10:36:31.850Z,14.35
2019-05-03T10:39:04.816Z,13.56
2019-05-03T10:41:36.680Z,14.51
2019-05-03T10:44:06.156Z,15.21
2019-05-03T10:46:37.298Z,15.21
2019-05-03T10:49:09.515Z,15.09
2019-05-03T10:51:45.255Z,15.30
2019-05-03T10:54:22.584Z,15.45
2019-05-03T10:56:59.090Z,15.13
2019-05-03T10:59:32.259Z,15.21
2019-05-03T11:02:13.268Z,14.80
2019-05-03T11:04:44.243Z,15.12
2019-05-03T11:07:17.417Z,15.20
2019-05-03T11:09:49.497Z,15.18
2019-05-03T11:12:20.669Z,14.54
2019-05-03T11:14:52.803Z,14.40
2019-05-03T11:17:22.410Z,15.04
2019-05-03T11:19:54.610Z,14.42
2019-05-03T11:22:26.439Z,14.63
2019-05-03T11:24:58.787Z,14.25
2019-05-03T11:27:35.378Z,14.60
2019-05-03T11:30:09.402Z,15.36
2019-05-03T11:32:59.669Z,15.25
2019-05-03T11:35:41.404Z,15.79
2019-05-03T11:38:25.250Z,15.98
2019-05-03T11:40:56.020Z,15.52
2019-05-03T11:43:26.614Z,15.46
2019-05-03T11:46:00.221Z,14.66
2019-05-03T11:48:29.521Z,15.29
2019-05-03T11:51:02.034Z,15.26
2019-05-03T11:53:39.292Z,15.63
2019-05-03T11:56:12.326Z,15.92
2019-05-03T11:58:41.446Z,15.75
2019-05-03T12:01:19.889Z,15.65
2019-05-03T12:03:59.437Z,15.93
2019-05-03T12:06:28.868Z,16.08
2019-05-03T12:08:59.674Z,16.90
2019-05-03T12:11:30.841Z,17.54
2019-05-03T12:14:15.414Z,17.48
2019-05-03T12:17:19.581Z,17.66
2019-05-03T12:19:31.510Z,15.79
2019-05-03T12:22:05.881Z,15.31
2019-05-03T12:24:39.549Z,16.47
2019-05-03T12:27:08.101Z,16.37
2019-05-03T12:29:37.738Z,16.14
2019-05-03T12:32:09.098Z,16.33
2019-05-03T12:34:46.330Z,16.67
2019-05-03T12:37:15.577Z,17.08
2019-05-03T12:39:44.895Z,16.66
2019-05-03T12:42:35.485Z,16.80
2019-05-03T12:45:05.530Z,16.57
2019-05-03T12:47:34.843Z,16.86
2019-05-03T12:50:05.490Z,16.60
2019-05-03T12:52:39.385Z,16.58
2019-05-03T12:55:06.751Z,16.35
2019-05-03T12:57:37.420Z,16.19
2019-05-03T13:00:26.254Z,17.04
2019-05-03T13:03:04.457Z,17.26
2019-05-03T13:05:36.582Z,16.36
2019-05-03T13:08:35.550Z,16.81
2019-05-03T13:11:07.724Z,16.46
2019-05-03T13:13:38.376Z,17.22
2019-05-03T13:16:12.220Z,17.88
2019-05-03T13:18:41.818Z,18.75
2019-05-03T13:21:11.158Z,18.49
2019-05-03T13:23:41.275Z,17.73
2019-05-03T13:26:14.875Z,16.95
2019-05-03T13:28:45.802Z,16.97
2019-05-03T13:31:16.847Z,16.33
2019-05-03T13:33:46.715Z,16.63
2019-05-03T13:36:16.089Z,16.64
2019-05-03T13:38:45.924Z,16.63
2019-05-03T13:41:18.335Z,17.14
2019-05-03T13:43:51.102Z,17.92
2019-05-03T13:46:20.341Z,17.55
2019-05-03T13:48:50.482Z,16.54
2019-05-03T13:51:20.827Z,17.38
2019-05-03T13:53:55.156Z,18.34
2019-05-03T13:56:24.721Z,18.29
2019-05-03T13:58:56.900Z,18.30
2019-05-03T14:01:30.024Z,17.84
2019-05-03T14:03:59.122Z,18.07
2019-05-03T14:06:29.823Z,16.83
2019-05-03T14:08:59.003Z,16.29
2019-05-03T14:11:28.524Z,16.23
2019-05-03T14:13:57.852Z,16.56
2019-05-03T14:16:26.949Z,16.52
2019-05-03T14:19:00.056Z,16.32
2019-05-03T14:21:35.283Z,17.07
2019-05-03T14:24:12.305Z,17.18
2019-05-03T14:26:44.547Z,17.59
2019-05-03T14:29:14.881Z,17.21
2019-05-03T14:31:47.489Z,17.03
2019-05-03T14:34:20.292Z,16.66
2019-05-03T14:36:52.179Z,17.01
2019-05-03T14:39:21.489Z,16.65
2019-05-03T14:41:50.760Z,15.85
2019-05-03T14:44:21.198Z,16.91
2019-05-03T14:46:58.825Z,16.56
2019-05-03T14:49:28.161Z,17.44
2019-05-03T14:51:59.540Z,16.48
2019-05-03T14:54:36.130Z,17.43
2019-05-03T14:57:19.666Z,17.04
2019-05-03T15:00:07.680Z,17.54
2019-05-03T15:02:58.057Z,16.47
2019-05-03T15:05:27.081Z,16.67
2019-05-03T15:08:01.734Z,16.41
2019-05-03T15:10:34.985Z,16.34
2019-05-03T15:13:05.229Z,16.75
2019-05-03T15:15:34.814Z,16.18
2019-05-03T15:18:06.542Z,16.44
2019-05-03T15:20:35.651Z,16.32
2019-05-03T15:23:05.492Z,16.47
2019-05-03T15:25:35.103Z,15.84
2019-05-03T15:28:06.792Z,17.20
2019-05-03T15:30:35.872Z,16.64
2019-05-03T15:33:05.316Z,16.69
2019-05-03T15:35:35.100Z,17.35
2019-05-03T15:38:06.336Z,16.84
2019-05-03T15:40:35.480Z,16.64
2019-05-03T15:43:28.745Z,16.60
2019-05-03T15:46:14.952Z,16.51
2019-05-03T15:48:49.862Z,15.91
2019-05-03T15:51:19.178Z,15.79
2019-05-03T15:53:48.346Z,16.19
2019-05-03T15:56:17.462Z,16.30
2019-05-03T15:58:51.899Z,15.49
2019-05-03T16:01:21.819Z,15.46
2019-05-03T16:03:51.396Z,15.61
2019-05-03T16:06:20.591Z,15.71
2019-05-03T16:08:50.255Z,15.98
2019-05-03T16:11:21.898Z,15.77
2019-05-03T16:13:51.189Z,15.57
2019-05-03T16:16:24.856Z,15.92
2019-05-03T16:18:55.419Z,15.90
2019-05-03T16:21:25.171Z,15.66
2019-05-03T16:23:55.701Z,15.35
2019-05-03T16:26:27.932Z,15.80
2019-05-03T16:29:15.280Z,15.22
2019-05-03T16:31:45.710Z,15.31
2019-05-03T16:34:17.188Z,14.80
2019-05-03T16:36:52.417Z,15.15
2019-05-03T16:39:21.456Z,15.75
2019-05-03T16:41:50.632Z,15.96
2019-05-03T16:44:19.812Z,16.04
2019-05-03T16:46:49.889Z,16.07
2019-05-03T16:49:19.018Z,15.67
2019-05-03T16:51:48.256Z,15.99
2019-05-03T16:54:18.423Z,15.99
2019-05-03T16:56:49.050Z,16.29
2019-05-03T16:59:20.587Z,16.17
2019-05-03T17:01:49.040Z,16.50
2019-05-03T17:04:42.689Z,16.09
2019-05-03T17:07:35.951Z,16.36
2019-05-03T17:10:15.321Z,16.31
2019-05-03T17:12:50.263Z,16.03
2019-05-03T17:15:19.418Z,15.99
2019-05-03T17:17:48.970Z,16.24
2019-05-03T17:20:20.104Z,16.58
2019-05-03T17:22:49.759Z,16.24
2019-05-03T17:25:20.284Z,16.18
2019-05-03T17:27:51.488Z,16.30
2019-05-03T17:30:32.623Z,16.33
2019-05-03T17:32:58.080Z,16.30
2019-05-03T17:35:27.508Z,16.14
2019-05-03T17:37:59.059Z,16.13
2019-05-03T17:40:54.846Z,16.72
2019-05-03T17:43:40.441Z,16.54
2019-05-03T17:46:09.736Z,16.45
2019-05-03T17:48:41.275Z,15.54
2019-05-03T17:51:18.766Z,15.38
2019-05-03T17:54:01.162Z,15.84
2019-05-03T17:56:50.781Z,15.02
2019-05-03T17:59:35.148Z,14.11
2019-05-03T18:05:28.091Z,15.37
2019-05-03T18:08:12.895Z,15.45
2019-05-03T18:10:45.444Z,15.44
2019-05-03T18:13:17.162Z,15.31
2019-05-03T18:15:47.935Z,15.50
2019-05-03T18:18:17.047Z,15.64
2019-05-03T18:20:47.681Z,15.79
2019-05-03T18:23:16.657Z,15.68
2019-05-03T18:25:45.753Z,15.76
2019-05-03T18:28:16.611Z,15.84
2019-05-03T18:30:47.561Z,15.86
2019-05-03T18:33:18.457Z,15.72
2019-05-03T18:35:49.528Z,16.02
2019-05-03T18:38:18.626Z,15.61
2019-05-03T18:40:48.935Z,15.34
2019-05-03T18:43:41.191Z,15.39
2019-05-03T18:46:28.242Z,15.52
2019-05-03T18:49:00.286Z,15.49
2019-05-03T18:51:29.656Z,15.59
2019-05-03T18:54:01.901Z,15.70
2019-05-03T18:56:31.022Z,15.36
2019-05-03T18:59:00.153Z,15.34
2019-05-03T19:01:29.346Z,14.63
2019-05-03T19:04:04.912Z,14.89
2019-05-03T19:06:34.685Z,15.00
2019-05-03T19:09:17.835Z,15.21
2019-05-03T19:11:57.956Z,15.27
2019-05-03T19:14:28.205Z,15.11
2019-05-03T19:17:17.955Z,15.13
2019-05-03T19:19:52.847Z,14.86
2019-05-03T19:22:21.968Z,15.25
2019-05-03T19:24:51.264Z,15.30
2019-05-03T19:27:27.767Z,15.18
2019-05-03T19:29:56.840Z,14.75
2019-05-03T19:32:28.393Z,14.51
2019-05-03T19:34:58.071Z,14.96
2019-05-03T19:37:27.825Z,14.25
2019-05-03T19:39:59.809Z,14.38
2019-05-03T19:42:29.208Z,13.89
2019-05-03T19:44:58.292Z,13.75
2019-05-03T19:47:27.631Z,14.09
2019-05-03T19:49:59.741Z,14.23
2019-05-03T19:52:34.303Z,14.40
2019-05-03T19:55:25.722Z,14.66
2019-05-03T19:57:57.661Z,14.15
2019-05-03T20:00:30.733Z,14.19
2019-05-03T20:03:08.350Z,14.30
2019-05-03T20:06:00.652Z,14.62
2019-05-03T20:08:40.752Z,14.53
2019-05-03T20:11:16.811Z,14.25
2019-05-03T20:13:48.969Z,14.35
2019-05-03T20:16:18.067Z,14.30
2019-05-03T20:18:47.335Z,13.96
2019-05-03T20:21:16.444Z,13.62
2019-05-03T20:23:49.773Z,13.40
2019-05-03T20:26:22.244Z,13.18
2019-05-03T20:28:55.295Z,13.16
2019-05-03T20:31:25.262Z,12.91
2019-05-03T20:34:00.541Z,12.69
2019-05-03T20:36:29.606Z,12.89
2019-05-03T20:38:58.675Z,13.41
2019-05-03T20:41:30.228Z,13.37
2019-05-03T20:44:26.153Z,13.63
2019-05-03T20:47:25.789Z,13.68
2019-05-03T20:50:12.648Z,13.43
2019-05-03T20:52:44.763Z,13.85
2019-05-03T20:55:15.510Z,14.14
2019-05-03T20:57:44.868Z,14.24
2019-05-03T21:00:19.864Z,13.72
2019-05-03T21:02:54.139Z,13.74
2019-05-03T21:05:32.969Z,13.87
2019-05-03T21:08:02.293Z,14.46
2019-05-03T21:10:31.471Z,13.53
2019-05-03T21:13:00.542Z,13.39
2019-05-03T21:15:37.231Z,12.96
2019-05-03T21:18:25.226Z,13.24
2019-05-03T21:21:05.451Z,12.77
2019-05-03T21:23:44.979Z,12.47
2019-05-03T21:26:16.513Z,12.39
2019-05-03T21:28:45.080Z,12.30
2019-05-03T21:31:15.636Z,12.23
2019-05-03T21:33:45.043Z,12.40
2019-05-03T21:36:15.633Z,12.49
2019-05-03T21:38:44.630Z,12.06
2019-05-03T21:41:15.578Z,12.00
2019-05-03T21:43:45.138Z,11.83
2019-05-03T21:46:19.412Z,11.72
2019-05-03T21:49:07.002Z,12.04
2019-05-03T21:51:36.251Z,11.97
2019-05-03T21:54:11.418Z,12.02
2019-05-03T21:56:40.614Z,11.70
2019-05-03T21:59:10.150Z,12.03
2019-05-03T22:01:45.639Z,12.02
2019-05-03T22:04:15.703Z,11.60
2019-05-03T22:06:46.492Z,11.34
2019-05-03T22:09:17.362Z,11.51
2019-05-03T22:11:46.468Z,11.66
2019-05-03T22:14:21.474Z,11.41
2019-05-03T22:17:08.880Z,11.16
2019-05-03T22:19:38.470Z,10.89
2019-05-03T22:22:28.658Z,10.71
2019-05-03T22:24:58.397Z,10.64
2019-05-03T22:27:36.293Z,10.50
2019-05-03T22:30:07.220Z,10.45
2019-05-03T22:32:44.530Z,10.74
2019-05-03T22:35:12.574Z,10.67
2019-05-03T22:37:41.628Z,10.85
2019-05-03T22:40:12.095Z,10.77
2019-05-03T22:42:44.655Z,10.84
2019-05-03T22:45:13.626Z,10.80
2019-05-03T22:47:44.571Z,10.70
2019-05-03T22:50:15.950Z,10.83
2019-05-03T22:52:45.569Z,10.76
2019-05-03T22:55:17.984Z,10.63
2019-05-03T22:57:47.146Z,10.83
2019-05-03T23:00:16.304Z,10.86
2019-05-03T23:02:46.753Z,11.14
2019-05-03T23:05:15.785Z,11.10
2019-05-03T23:07:46.927Z,11.13
2019-05-03T23:10:19.410Z,10.86
2019-05-03T23:12:49.943Z,11.22
2019-05-03T23:15:26.343Z,11.04
2019-05-03T23:18:01.680Z,10.80
2019-05-03T23:20:38.521Z,11.15
2019-05-03T23:23:29.544Z,11.34
2019-05-03T23:26:01.762Z,11.09
2019-05-03T23:28:35.617Z,11.36
2019-05-03T23:31:07.498Z,11.46
2019-05-03T23:33:40.566Z,11.49
2019-05-03T23:36:12.326Z,11.47
2019-05-03T23:38:42.110Z,11.57
2019-05-03T23:41:11.197Z,11.69
2019-05-03T23:43:40.326Z,11.24
2019-05-03T23:46:14.482Z,11.53
2019-05-03T23:48:45.901Z,11.64
2019-05-03T23:51:35.095Z,12.24
2019-05-03T23:54:05.593Z,11.88
2019-05-03T23:56:35.121Z,11.51
2019-05-03T23:59:08.263Z,11.66
